sensor_id;sensor_type;location;lat;lon;timestamp;P1;durP1;ratioP1;P2;durP2;ratioP2
2211;SDS011;48849;48.758;9.158;2022-12-29T00:01:23;2.92;;;2.40;;
2211;SDS011;48849;48.758;9.158;2022-12-29T00:03:49;3.17;;;2.42;;
2211;SDS011;48849;48.758;9.158;2022-12-29T00:06:16;3.97;;;2.65;;
2211;SDS011;48849;48.758;9.158;2022-12-29T00:08:43;2.45;;;2.25;;
2211;SDS011;48849;48.758;9.158;2022-12-29T00:11:12;2.75;;;2.55;;
2211;SDS011;48849;48.758;9.158;2022-12-29T00:13:41;3.03;;;2.72;;
2211;SDS011;48849;48.758;9.158;2022-12-29T00:16:26;3.25;;;2.42;;
2211;SDS011;48849;48.758;9.158;2022-12-29T00:18:53;2.88;;;2.58;;
2211;SDS011;48849;48.758;9.158;2022-12-29T00:21:21;2.63;;;2.40;;
2211;SDS011;48849;48.758;9.158;2022-12-29T00:24:08;2.20;;;2.10;;
2211;SDS011;48849;48.758;9.158;2022-12-29T00:26:57;2.67;;;2.42;;
2211;SDS011;48849;48.758;9.158;2022-12-29T00:29:47;2.72;;;2.35;;
2211;SDS011;48849;48.758;9.158;2022-12-29T00:32:32;2.35;;;2.15;;
2211;SDS011;48849;48.758;9.158;2022-12-29T00:35:20;2.50;;;2.30;;
2211;SDS011;48849;48.758;9.158;2022-12-29T00:37:50;2.90;;;2.53;;
2211;SDS011;48849;48.758;9.158;2022-12-29T00:40:34;2.47;;;2.28;;
2211;SDS011;48849;48.758;9.158;2022-12-29T00:43:20;3.78;;;2.65;;
2211;SDS011;48849;48.758;9.158;2022-12-29T00:46:04;6.88;;;3.40;;
2211;SDS011;48849;48.758;9.158;2022-12-29T00:48:30;5.20;;;3.88;;
2211;SDS011;48849;48.758;9.158;2022-12-29T00:51:15;8.95;;;5.13;;
2211;SDS011;48849;48.758;9.158;2022-12-29T00:53:42;7.63;;;4.90;;
2211;SDS011;48849;48.758;9.158;2022-12-29T00:56:08;7.95;;;4.72;;
2211;SDS011;48849;48.758;9.158;2022-12-29T00:58:36;6.80;;;3.55;;
2211;SDS011;48849;48.758;9.158;2022-12-29T01:01:03;4.20;;;3.05;;
2211;SDS011;48849;48.758;9.158;2022-12-29T01:03:31;3.83;;;3.40;;
2211;SDS011;48849;48.758;9.158;2022-12-29T01:05:59;6.55;;;4.32;;
2211;SDS011;48849;48.758;9.158;2022-12-29T01:08:27;6.68;;;3.78;;
2211;SDS011;48849;48.758;9.158;2022-12-29T01:10:57;7.03;;;3.90;;
2211;SDS011;48849;48.758;9.158;2022-12-29T01:13:23;6.53;;;3.72;;
2211;SDS011;48849;48.758;9.158;2022-12-29T01:15:51;5.82;;;3.60;;
2211;SDS011;48849;48.758;9.158;2022-12-29T01:18:19;3.03;;;2.60;;
2211;SDS011;48849;48.758;9.158;2022-12-29T01:20:46;3.72;;;2.60;;
2211;SDS011;48849;48.758;9.158;2022-12-29T01:23:13;2.97;;;2.67;;
2211;SDS011;48849;48.758;9.158;2022-12-29T01:25:39;3.10;;;2.35;;
2211;SDS011;48849;48.758;9.158;2022-12-29T01:28:06;2.53;;;2.13;;
2211;SDS011;48849;48.758;9.158;2022-12-29T01:30:33;2.20;;;2.08;;
2211;SDS011;48849;48.758;9.158;2022-12-29T01:33:01;2.60;;;2.15;;
2211;SDS011;48849;48.758;9.158;2022-12-29T01:35:28;4.57;;;2.10;;
2211;SDS011;48849;48.758;9.158;2022-12-29T01:37:55;3.00;;;2.70;;
2211;SDS011;48849;48.758;9.158;2022-12-29T01:40:21;2.53;;;2.30;;
2211;SDS011;48849;48.758;9.158;2022-12-29T01:42:48;2.50;;;2.20;;
2211;SDS011;48849;48.758;9.158;2022-12-29T01:45:15;2.35;;;2.17;;
2211;SDS011;48849;48.758;9.158;2022-12-29T01:47:43;3.00;;;2.80;;
2211;SDS011;48849;48.758;9.158;2022-12-29T01:50:16;3.10;;;2.45;;
2211;SDS011;48849;48.758;9.158;2022-12-29T01:52:47;3.15;;;2.10;;
2211;SDS011;48849;48.758;9.158;2022-12-29T01:55:20;4.15;;;2.13;;
2211;SDS011;48849;48.758;9.158;2022-12-29T01:57:49;2.42;;;2.20;;
2211;SDS011;48849;48.758;9.158;2022-12-29T02:00:19;2.45;;;2.25;;
2211;SDS011;48849;48.758;9.158;2022-12-29T02:02:46;2.25;;;1.80;;
2211;SDS011;48849;48.758;9.158;2022-12-29T02:05:21;4.28;;;2.70;;
2211;SDS011;48849;48.758;9.158;2022-12-29T02:07:53;3.45;;;2.13;;
2211;SDS011;48849;48.758;9.158;2022-12-29T02:10:20;2.00;;;1.90;;
2211;SDS011;48849;48.758;9.158;2022-12-29T02:12:49;1.77;;;1.67;;
2211;SDS011;48849;48.758;9.158;2022-12-29T02:15:15;3.58;;;2.25;;
2211;SDS011;48849;48.758;9.158;2022-12-29T02:23:44;2.63;;;1.85;;
2211;SDS011;48849;48.758;9.158;2022-12-29T02:26:30;2.17;;;1.98;;
2211;SDS011;48849;48.758;9.158;2022-12-29T02:32:18;1.98;;;1.88;;
2211;SDS011;48849;48.758;9.158;2022-12-29T02:34:53;2.50;;;2.30;;
2211;SDS011;48849;48.758;9.158;2022-12-29T02:37:28;2.00;;;1.90;;
2211;SDS011;48849;48.758;9.158;2022-12-29T02:40:06;3.60;;;2.10;;
2211;SDS011;48849;48.758;9.158;2022-12-29T02:42:43;3.90;;;2.25;;
2211;SDS011;48849;48.758;9.158;2022-12-29T02:45:15;2.60;;;2.40;;
2211;SDS011;48849;48.758;9.158;2022-12-29T02:47:49;2.60;;;2.03;;
2211;SDS011;48849;48.758;9.158;2022-12-29T02:50:23;3.83;;;2.10;;
2211;SDS011;48849;48.758;9.158;2022-12-29T02:52:56;3.70;;;2.08;;
2211;SDS011;48849;48.758;9.158;2022-12-29T02:55:26;2.25;;;1.90;;
2211;SDS011;48849;48.758;9.158;2022-12-29T02:58:05;2.23;;;2.13;;
2211;SDS011;48849;48.758;9.158;2022-12-29T03:00:42;3.85;;;2.20;;
2211;SDS011;48849;48.758;9.158;2022-12-29T03:03:22;1.80;;;1.70;;
2211;SDS011;48849;48.758;9.158;2022-12-29T03:06:06;2.00;;;1.80;;
2211;SDS011;48849;48.758;9.158;2022-12-29T03:08:44;4.20;;;1.45;;
2211;SDS011;48849;48.758;9.158;2022-12-29T03:11:15;2.00;;;1.80;;
2211;SDS011;48849;48.758;9.158;2022-12-29T03:14:02;2.25;;;2.05;;
2211;SDS011;48849;48.758;9.158;2022-12-29T03:16:53;1.98;;;1.83;;
2211;SDS011;48849;48.758;9.158;2022-12-29T03:19:25;2.80;;;1.85;;
2211;SDS011;48849;48.758;9.158;2022-12-29T03:21:55;7.15;;;2.30;;
2211;SDS011;48849;48.758;9.158;2022-12-29T03:24:43;3.90;;;1.80;;
2211;SDS011;48849;48.758;9.158;2022-12-29T03:27:14;2.05;;;1.85;;
2211;SDS011;48849;48.758;9.158;2022-12-29T03:29:45;3.17;;;1.80;;
2211;SDS011;48849;48.758;9.158;2022-12-29T03:32:19;5.65;;;2.20;;
2211;SDS011;48849;48.758;9.158;2022-12-29T03:34:49;2.72;;;1.98;;
2211;SDS011;48849;48.758;9.158;2022-12-29T03:37:17;2.50;;;1.60;;
2211;SDS011;48849;48.758;9.158;2022-12-29T03:39:47;2.40;;;1.95;;
2211;SDS011;48849;48.758;9.158;2022-12-29T03:42:15;4.80;;;1.70;;
2211;SDS011;48849;48.758;9.158;2022-12-29T03:44:44;3.50;;;2.30;;
2211;SDS011;48849;48.758;9.158;2022-12-29T03:47:12;3.45;;;1.70;;
2211;SDS011;48849;48.758;9.158;2022-12-29T03:49:40;2.55;;;1.73;;
2211;SDS011;48849;48.758;9.158;2022-12-29T03:52:08;1.80;;;1.70;;
2211;SDS011;48849;48.758;9.158;2022-12-29T03:54:35;2.90;;;1.88;;
2211;SDS011;48849;48.758;9.158;2022-12-29T03:57:01;2.08;;;1.50;;
2211;SDS011;48849;48.758;9.158;2022-12-29T03:59:28;1.60;;;1.50;;
2211;SDS011;48849;48.758;9.158;2022-12-29T04:01:55;2.00;;;1.80;;
2211;SDS011;48849;48.758;9.158;2022-12-29T04:04:21;1.90;;;1.65;;
2211;SDS011;48849;48.758;9.158;2022-12-29T04:06:48;1.85;;;1.55;;
2211;SDS011;48849;48.758;9.158;2022-12-29T04:09:16;2.53;;;1.80;;
2211;SDS011;48849;48.758;9.158;2022-12-29T04:11:43;4.47;;;1.52;;
2211;SDS011;48849;48.758;9.158;2022-12-29T04:14:09;3.50;;;1.75;;
2211;SDS011;48849;48.758;9.158;2022-12-29T04:16:36;2.17;;;1.45;;
2211;SDS011;48849;48.758;9.158;2022-12-29T04:19:03;2.95;;;1.40;;
2211;SDS011;48849;48.758;9.158;2022-12-29T04:21:30;2.10;;;1.85;;
2211;SDS011;48849;48.758;9.158;2022-12-29T04:23:57;1.77;;;1.60;;
2211;SDS011;48849;48.758;9.158;2022-12-29T04:26:25;2.10;;;1.90;;
2211;SDS011;48849;48.758;9.158;2022-12-29T04:28:52;2.40;;;1.77;;
2211;SDS011;48849;48.758;9.158;2022-12-29T04:31:19;2.03;;;1.42;;
2211;SDS011;48849;48.758;9.158;2022-12-29T04:33:45;1.85;;;1.40;;
2211;SDS011;48849;48.758;9.158;2022-12-29T04:36:12;2.17;;;1.60;;
2211;SDS011;48849;48.758;9.158;2022-12-29T04:38:39;1.95;;;1.77;;
2211;SDS011;48849;48.758;9.158;2022-12-29T04:41:05;3.30;;;1.70;;
2211;SDS011;48849;48.758;9.158;2022-12-29T04:43:33;2.20;;;1.95;;
2211;SDS011;48849;48.758;9.158;2022-12-29T04:46:00;1.63;;;1.52;;
2211;SDS011;48849;48.758;9.158;2022-12-29T04:48:27;2.08;;;1.75;;
2211;SDS011;48849;48.758;9.158;2022-12-29T04:50:53;3.25;;;1.63;;
2211;SDS011;48849;48.758;9.158;2022-12-29T04:53:20;2.75;;;1.90;;
2211;SDS011;48849;48.758;9.158;2022-12-29T04:55:48;1.75;;;1.65;;
2211;SDS011;48849;48.758;9.158;2022-12-29T04:58:15;2.13;;;1.92;;
2211;SDS011;48849;48.758;9.158;2022-12-29T05:00:43;4.03;;;2.22;;
2211;SDS011;48849;48.758;9.158;2022-12-29T05:03:10;1.90;;;1.80;;
2211;SDS011;48849;48.758;9.158;2022-12-29T05:05:37;1.80;;;1.70;;
2211;SDS011;48849;48.758;9.158;2022-12-29T05:08:04;2.55;;;1.73;;
2211;SDS011;48849;48.758;9.158;2022-12-29T05:10:31;2.15;;;2.05;;
2211;SDS011;48849;48.758;9.158;2022-12-29T05:12:58;2.67;;;1.90;;
2211;SDS011;48849;48.758;9.158;2022-12-29T05:15:24;2.10;;;1.85;;
2211;SDS011;48849;48.758;9.158;2022-12-29T05:17:53;2.20;;;2.00;;
2211;SDS011;48849;48.758;9.158;2022-12-29T05:20:19;1.77;;;1.65;;
2211;SDS011;48849;48.758;9.158;2022-12-29T05:22:46;2.42;;;1.85;;
2211;SDS011;48849;48.758;9.158;2022-12-29T05:25:13;3.15;;;2.15;;
2211;SDS011;48849;48.758;9.158;2022-12-29T05:27:39;2.03;;;1.92;;
2211;SDS011;48849;48.758;9.158;2022-12-29T05:30:06;1.92;;;1.60;;
2211;SDS011;48849;48.758;9.158;2022-12-29T05:32:34;2.75;;;1.92;;
2211;SDS011;48849;48.758;9.158;2022-12-29T05:35:02;2.80;;;1.75;;
2211;SDS011;48849;48.758;9.158;2022-12-29T05:37:29;1.85;;;1.75;;
2211;SDS011;48849;48.758;9.158;2022-12-29T05:39:56;2.65;;;1.80;;
2211;SDS011;48849;48.758;9.158;2022-12-29T05:42:24;2.20;;;2.05;;
2211;SDS011;48849;48.758;9.158;2022-12-29T05:44:50;5.15;;;2.20;;
2211;SDS011;48849;48.758;9.158;2022-12-29T05:47:18;2.75;;;1.90;;
2211;SDS011;48849;48.758;9.158;2022-12-29T05:49:45;1.83;;;1.70;;
2211;SDS011;48849;48.758;9.158;2022-12-29T05:52:13;2.25;;;2.05;;
2211;SDS011;48849;48.758;9.158;2022-12-29T05:54:40;2.40;;;2.13;;
2211;SDS011;48849;48.758;9.158;2022-12-29T05:57:06;2.00;;;1.80;;
2211;SDS011;48849;48.758;9.158;2022-12-29T05:59:34;3.63;;;2.08;;
2211;SDS011;48849;48.758;9.158;2022-12-29T06:02:00;2.40;;;2.20;;
2211;SDS011;48849;48.758;9.158;2022-12-29T06:04:27;3.38;;;2.05;;
2211;SDS011;48849;48.758;9.158;2022-12-29T06:06:54;3.70;;;2.38;;
2211;SDS011;48849;48.758;9.158;2022-12-29T06:09:22;4.43;;;1.90;;
2211;SDS011;48849;48.758;9.158;2022-12-29T06:11:48;3.15;;;2.15;;
2211;SDS011;48849;48.758;9.158;2022-12-29T06:14:15;2.00;;;1.90;;
2211;SDS011;48849;48.758;9.158;2022-12-29T06:16:42;3.53;;;2.15;;
2211;SDS011;48849;48.758;9.158;2022-12-29T06:19:08;4.78;;;2.55;;
2211;SDS011;48849;48.758;9.158;2022-12-29T06:21:35;1.80;;;1.70;;
2211;SDS011;48849;48.758;9.158;2022-12-29T06:24:03;1.98;;;1.55;;
2211;SDS011;48849;48.758;9.158;2022-12-29T06:26:31;3.53;;;2.15;;
2211;SDS011;48849;48.758;9.158;2022-12-29T06:28:58;3.22;;;2.85;;
2211;SDS011;48849;48.758;9.158;2022-12-29T06:31:24;3.58;;;2.55;;
2211;SDS011;48849;48.758;9.158;2022-12-29T06:33:51;3.53;;;2.35;;
2211;SDS011;48849;48.758;9.158;2022-12-29T06:36:18;3.38;;;2.75;;
2211;SDS011;48849;48.758;9.158;2022-12-29T06:38:44;3.40;;;2.00;;
2211;SDS011;48849;48.758;9.158;2022-12-29T06:41:11;2.40;;;2.10;;
2211;SDS011;48849;48.758;9.158;2022-12-29T06:43:39;2.88;;;2.40;;
2211;SDS011;48849;48.758;9.158;2022-12-29T06:46:06;1.98;;;1.70;;
2211;SDS011;48849;48.758;9.158;2022-12-29T06:48:32;3.92;;;1.95;;
2211;SDS011;48849;48.758;9.158;2022-12-29T06:50:59;2.42;;;2.22;;
2211;SDS011;48849;48.758;9.158;2022-12-29T06:53:25;1.90;;;1.80;;
2211;SDS011;48849;48.758;9.158;2022-12-29T06:55:52;2.70;;;1.92;;
2211;SDS011;48849;48.758;9.158;2022-12-29T06:58:19;2.22;;;2.00;;
2211;SDS011;48849;48.758;9.158;2022-12-29T07:00:47;2.75;;;1.83;;
2211;SDS011;48849;48.758;9.158;2022-12-29T07:03:14;5.03;;;2.28;;
2211;SDS011;48849;48.758;9.158;2022-12-29T07:05:41;2.08;;;1.65;;
2211;SDS011;48849;48.758;9.158;2022-12-29T07:08:07;2.35;;;1.80;;
2211;SDS011;48849;48.758;9.158;2022-12-29T07:10:34;1.88;;;1.77;;
2211;SDS011;48849;48.758;9.158;2022-12-29T07:13:01;2.35;;;1.80;;
2211;SDS011;48849;48.758;9.158;2022-12-29T07:15:27;3.38;;;2.00;;
2211;SDS011;48849;48.758;9.158;2022-12-29T07:17:55;2.42;;;1.75;;
2211;SDS011;48849;48.758;9.158;2022-12-29T07:20:22;1.70;;;1.60;;
2211;SDS011;48849;48.758;9.158;2022-12-29T07:22:49;2.70;;;2.22;;
2211;SDS011;48849;48.758;9.158;2022-12-29T07:25:15;2.55;;;2.35;;
2211;SDS011;48849;48.758;9.158;2022-12-29T07:27:42;2.13;;;1.92;;
2211;SDS011;48849;48.758;9.158;2022-12-29T07:30:09;3.20;;;1.85;;
2211;SDS011;48849;48.758;9.158;2022-12-29T07:32:37;3.13;;;2.13;;
2211;SDS011;48849;48.758;9.158;2022-12-29T07:35:05;2.30;;;2.10;;
2211;SDS011;48849;48.758;9.158;2022-12-29T07:37:33;2.17;;;1.75;;
2211;SDS011;48849;48.758;9.158;2022-12-29T07:40:00;2.30;;;1.90;;
2211;SDS011;48849;48.758;9.158;2022-12-29T07:42:28;3.35;;;2.00;;
2211;SDS011;48849;48.758;9.158;2022-12-29T07:44:54;4.13;;;2.25;;
2211;SDS011;48849;48.758;9.158;2022-12-29T07:47:21;2.45;;;2.03;;
2211;SDS011;48849;48.758;9.158;2022-12-29T07:49:48;2.20;;;2.00;;
2211;SDS011;48849;48.758;9.158;2022-12-29T07:52:16;3.20;;;2.30;;
2211;SDS011;48849;48.758;9.158;2022-12-29T07:54:42;2.63;;;2.42;;
2211;SDS011;48849;48.758;9.158;2022-12-29T07:57:10;4.13;;;2.67;;
2211;SDS011;48849;48.758;9.158;2022-12-29T07:59:36;2.67;;;2.45;;
2211;SDS011;48849;48.758;9.158;2022-12-29T08:02:03;2.42;;;2.22;;
2211;SDS011;48849;48.758;9.158;2022-12-29T08:04:30;2.72;;;2.15;;
2211;SDS011;48849;48.758;9.158;2022-12-29T08:06:56;3.35;;;2.42;;
2211;SDS011;48849;48.758;9.158;2022-12-29T08:09:24;2.78;;;2.20;;
2211;SDS011;48849;48.758;9.158;2022-12-29T08:11:51;3.45;;;2.50;;
2211;SDS011;48849;48.758;9.158;2022-12-29T08:14:18;3.38;;;2.50;;
2211;SDS011;48849;48.758;9.158;2022-12-29T08:16:44;2.40;;;1.90;;
2211;SDS011;48849;48.758;9.158;2022-12-29T08:19:11;3.83;;;2.00;;
2211;SDS011;48849;48.758;9.158;2022-12-29T08:21:39;2.42;;;2.22;;
2211;SDS011;48849;48.758;9.158;2022-12-29T08:24:06;2.25;;;2.05;;
2211;SDS011;48849;48.758;9.158;2022-12-29T08:26:35;4.00;;;2.00;;
2211;SDS011;48849;48.758;9.158;2022-12-29T08:29:02;2.10;;;1.90;;
2211;SDS011;48849;48.758;9.158;2022-12-29T08:31:28;2.42;;;2.22;;
2211;SDS011;48849;48.758;9.158;2022-12-29T08:33:55;3.42;;;2.00;;
2211;SDS011;48849;48.758;9.158;2022-12-29T08:36:22;2.72;;;2.33;;
2211;SDS011;48849;48.758;9.158;2022-12-29T08:38:48;2.42;;;2.22;;
2211;SDS011;48849;48.758;9.158;2022-12-29T08:41:15;2.30;;;2.10;;
2211;SDS011;48849;48.758;9.158;2022-12-29T08:43:46;2.78;;;2.58;;
2211;SDS011;48849;48.758;9.158;2022-12-29T08:46:13;2.38;;;2.17;;
2211;SDS011;48849;48.758;9.158;2022-12-29T08:48:40;2.90;;;2.70;;
2211;SDS011;48849;48.758;9.158;2022-12-29T08:51:06;5.35;;;2.30;;
2211;SDS011;48849;48.758;9.158;2022-12-29T08:53:33;2.80;;;2.50;;
2211;SDS011;48849;48.758;9.158;2022-12-29T08:56:00;2.70;;;2.47;;
2211;SDS011;48849;48.758;9.158;2022-12-29T08:58:27;3.15;;;2.25;;
2211;SDS011;48849;48.758;9.158;2022-12-29T09:00:56;3.00;;;2.75;;
2211;SDS011;48849;48.758;9.158;2022-12-29T09:03:23;3.05;;;2.47;;
2211;SDS011;48849;48.758;9.158;2022-12-29T09:05:51;3.15;;;2.53;;
2211;SDS011;48849;48.758;9.158;2022-12-29T09:08:20;3.05;;;2.47;;
2211;SDS011;48849;48.758;9.158;2022-12-29T09:10:47;3.03;;;2.33;;
2211;SDS011;48849;48.758;9.158;2022-12-29T09:13:14;2.40;;;2.20;;
2211;SDS011;48849;48.758;9.158;2022-12-29T09:15:42;4.88;;;2.72;;
2211;SDS011;48849;48.758;9.158;2022-12-29T09:18:10;2.90;;;2.58;;
2211;SDS011;48849;48.758;9.158;2022-12-29T09:20:37;4.25;;;2.42;;
2211;SDS011;48849;48.758;9.158;2022-12-29T09:23:04;2.90;;;2.35;;
2211;SDS011;48849;48.758;9.158;2022-12-29T09:25:32;3.08;;;2.35;;
2211;SDS011;48849;48.758;9.158;2022-12-29T09:27:58;3.10;;;2.58;;
2211;SDS011;48849;48.758;9.158;2022-12-29T09:30:27;2.95;;;2.10;;
2211;SDS011;48849;48.758;9.158;2022-12-29T09:32:54;3.72;;;2.70;;
2211;SDS011;48849;48.758;9.158;2022-12-29T09:35:22;2.90;;;2.20;;
2211;SDS011;48849;48.758;9.158;2022-12-29T09:37:49;3.92;;;2.70;;
2211;SDS011;48849;48.758;9.158;2022-12-29T09:40:20;4.50;;;2.30;;
2211;SDS011;48849;48.758;9.158;2022-12-29T09:42:55;4.43;;;2.75;;
2211;SDS011;48849;48.758;9.158;2022-12-29T09:45:42;5.18;;;2.90;;
2211;SDS011;48849;48.758;9.158;2022-12-29T09:48:12;3.10;;;2.20;;
2211;SDS011;48849;48.758;9.158;2022-12-29T09:50:44;3.15;;;2.13;;
2211;SDS011;48849;48.758;9.158;2022-12-29T09:53:17;3.05;;;2.45;;
2211;SDS011;48849;48.758;9.158;2022-12-29T09:55:50;5.25;;;3.38;;
2211;SDS011;48849;48.758;9.158;2022-12-29T09:58:21;3.50;;;2.28;;
2211;SDS011;48849;48.758;9.158;2022-12-29T10:00:52;3.50;;;3.20;;
2211;SDS011;48849;48.758;9.158;2022-12-29T10:03:25;3.63;;;2.88;;
2211;SDS011;48849;48.758;9.158;2022-12-29T10:06:00;2.95;;;2.65;;
2211;SDS011;48849;48.758;9.158;2022-12-29T10:08:37;3.60;;;2.65;;
2211;SDS011;48849;48.758;9.158;2022-12-29T10:11:11;2.50;;;2.30;;
2211;SDS011;48849;48.758;9.158;2022-12-29T10:13:54;2.05;;;1.90;;
2211;SDS011;48849;48.758;9.158;2022-12-29T10:16:34;3.20;;;1.98;;
2211;SDS011;48849;48.758;9.158;2022-12-29T10:19:15;3.20;;;2.13;;
2211;SDS011;48849;48.758;9.158;2022-12-29T10:22:01;3.58;;;2.15;;
2211;SDS011;48849;48.758;9.158;2022-12-29T10:24:37;2.53;;;1.90;;
2211;SDS011;48849;48.758;9.158;2022-12-29T10:27:05;3.75;;;2.10;;
2211;SDS011;48849;48.758;9.158;2022-12-29T10:29:37;2.88;;;2.20;;
2211;SDS011;48849;48.758;9.158;2022-12-29T10:32:13;2.30;;;2.10;;
2211;SDS011;48849;48.758;9.158;2022-12-29T10:34:47;2.30;;;2.10;;
2211;SDS011;48849;48.758;9.158;2022-12-29T10:37:21;2.42;;;2.10;;
2211;SDS011;48849;48.758;9.158;2022-12-29T10:39:56;2.22;;;2.03;;
2211;SDS011;48849;48.758;9.158;2022-12-29T10:42:26;3.72;;;2.17;;
2211;SDS011;48849;48.758;9.158;2022-12-29T10:44:53;2.97;;;2.20;;
2211;SDS011;48849;48.758;9.158;2022-12-29T10:47:21;2.70;;;2.10;;
2211;SDS011;48849;48.758;9.158;2022-12-29T10:49:51;3.40;;;2.30;;
2211;SDS011;48849;48.758;9.158;2022-12-29T10:52:20;2.42;;;2.10;;
2211;SDS011;48849;48.758;9.158;2022-12-29T10:54:49;2.25;;;2.08;;
2211;SDS011;48849;48.758;9.158;2022-12-29T10:57:22;2.17;;;1.98;;
2211;SDS011;48849;48.758;9.158;2022-12-29T10:59:52;2.40;;;1.80;;
2211;SDS011;48849;48.758;9.158;2022-12-29T11:05:13;4.60;;;2.08;;
2211;SDS011;48849;48.758;9.158;2022-12-29T11:07:49;2.20;;;1.73;;
2211;SDS011;48849;48.758;9.158;2022-12-29T11:10:18;3.50;;;2.13;;
2211;SDS011;48849;48.758;9.158;2022-12-29T11:12:57;2.60;;;2.38;;
2211;SDS011;48849;48.758;9.158;2022-12-29T11:15:24;2.72;;;2.10;;
2211;SDS011;48849;48.758;9.158;2022-12-29T11:17:52;2.83;;;2.30;;
2211;SDS011;48849;48.758;9.158;2022-12-29T11:20:28;3.70;;;2.35;;
2211;SDS011;48849;48.758;9.158;2022-12-29T11:22:59;2.95;;;2.20;;
2211;SDS011;48849;48.758;9.158;2022-12-29T11:25:26;3.95;;;2.35;;
2211;SDS011;48849;48.758;9.158;2022-12-29T11:27:55;2.30;;;2.10;;
2211;SDS011;48849;48.758;9.158;2022-12-29T11:30:23;2.30;;;1.88;;
2211;SDS011;48849;48.758;9.158;2022-12-29T11:32:53;2.70;;;2.00;;
2211;SDS011;48849;48.758;9.158;2022-12-29T11:35:29;2.78;;;1.80;;
2211;SDS011;48849;48.758;9.158;2022-12-29T11:37:58;2.30;;;1.92;;
2211;SDS011;48849;48.758;9.158;2022-12-29T11:40:27;2.50;;;2.20;;
2211;SDS011;48849;48.758;9.158;2022-12-29T11:42:55;3.30;;;2.80;;
2211;SDS011;48849;48.758;9.158;2022-12-29T11:45:25;2.50;;;2.10;;
2211;SDS011;48849;48.758;9.158;2022-12-29T11:47:58;5.20;;;2.30;;
2211;SDS011;48849;48.758;9.158;2022-12-29T11:50:28;3.75;;;1.98;;
2211;SDS011;48849;48.758;9.158;2022-12-29T11:53:00;2.42;;;1.98;;
2211;SDS011;48849;48.758;9.158;2022-12-29T11:55:29;1.80;;;1.70;;
2211;SDS011;48849;48.758;9.158;2022-12-29T11:57:58;4.30;;;2.13;;
2211;SDS011;48849;48.758;9.158;2022-12-29T12:00:28;4.78;;;2.10;;
2211;SDS011;48849;48.758;9.158;2022-12-29T12:02:59;5.05;;;2.83;;
2211;SDS011;48849;48.758;9.158;2022-12-29T12:05:32;4.60;;;2.42;;
2211;SDS011;48849;48.758;9.158;2022-12-29T12:08:07;3.30;;;2.20;;
2211;SDS011;48849;48.758;9.158;2022-12-29T12:10:38;2.08;;;1.90;;
2211;SDS011;48849;48.758;9.158;2022-12-29T12:13:16;2.58;;;2.10;;
2211;SDS011;48849;48.758;9.158;2022-12-29T12:15:47;2.63;;;1.60;;
2211;SDS011;48849;48.758;9.158;2022-12-29T12:18:24;2.38;;;1.90;;
2211;SDS011;48849;48.758;9.158;2022-12-29T12:20:58;3.53;;;1.98;;
2211;SDS011;48849;48.758;9.158;2022-12-29T12:23:35;2.35;;;2.03;;
2211;SDS011;48849;48.758;9.158;2022-12-29T12:26:09;2.47;;;1.90;;
2211;SDS011;48849;48.758;9.158;2022-12-29T12:28:40;2.67;;;1.90;;
2211;SDS011;48849;48.758;9.158;2022-12-29T12:31:16;3.38;;;1.73;;
2211;SDS011;48849;48.758;9.158;2022-12-29T12:33:47;2.60;;;2.08;;
2211;SDS011;48849;48.758;9.158;2022-12-29T12:36:22;4.28;;;2.60;;
2211;SDS011;48849;48.758;9.158;2022-12-29T12:39:06;2.42;;;1.98;;
2211;SDS011;48849;48.758;9.158;2022-12-29T12:41:41;2.53;;;1.95;;
2211;SDS011;48849;48.758;9.158;2022-12-29T12:44:17;2.30;;;2.08;;
2211;SDS011;48849;48.758;9.158;2022-12-29T12:47:01;4.97;;;2.25;;
2211;SDS011;48849;48.758;9.158;2022-12-29T12:52:41;3.47;;;2.15;;
2211;SDS011;48849;48.758;9.158;2022-12-29T12:55:30;3.30;;;2.40;;
2211;SDS011;48849;48.758;9.158;2022-12-29T12:58:09;3.30;;;2.40;;
2211;SDS011;48849;48.758;9.158;2022-12-29T13:00:43;2.55;;;2.33;;
2211;SDS011;48849;48.758;9.158;2022-12-29T13:03:24;4.15;;;2.40;;
2211;SDS011;48849;48.758;9.158;2022-12-29T13:06:04;5.18;;;2.67;;
2211;SDS011;48849;48.758;9.158;2022-12-29T13:08:43;3.75;;;2.50;;
2211;SDS011;48849;48.758;9.158;2022-12-29T13:11:20;2.28;;;2.08;;
2211;SDS011;48849;48.758;9.158;2022-12-29T13:14:00;3.30;;;2.70;;
2211;SDS011;48849;48.758;9.158;2022-12-29T13:16:38;3.05;;;2.75;;
2211;SDS011;48849;48.758;9.158;2022-12-29T13:19:13;3.25;;;2.60;;
2211;SDS011;48849;48.758;9.158;2022-12-29T13:21:47;5.38;;;2.65;;
2211;SDS011;48849;48.758;9.158;2022-12-29T13:24:24;3.50;;;2.75;;
2211;SDS011;48849;48.758;9.158;2022-12-29T13:27:02;3.58;;;2.10;;
2211;SDS011;48849;48.758;9.158;2022-12-29T13:29:36;5.03;;;2.92;;
2211;SDS011;48849;48.758;9.158;2022-12-29T13:32:14;3.10;;;2.40;;
2211;SDS011;48849;48.758;9.158;2022-12-29T13:34:53;4.43;;;2.08;;
2211;SDS011;48849;48.758;9.158;2022-12-29T13:37:29;3.20;;;2.20;;
2211;SDS011;48849;48.758;9.158;2022-12-29T13:40:01;2.58;;;2.17;;
2211;SDS011;48849;48.758;9.158;2022-12-29T13:42:37;10.00;;;2.25;;
2211;SDS011;48849;48.758;9.158;2022-12-29T13:45:04;2.75;;;2.10;;
2211;SDS011;48849;48.758;9.158;2022-12-29T13:47:37;2.28;;;2.00;;
2211;SDS011;48849;48.758;9.158;2022-12-29T13:50:16;2.90;;;2.15;;
2211;SDS011;48849;48.758;9.158;2022-12-29T13:52:48;2.15;;;1.90;;
2211;SDS011;48849;48.758;9.158;2022-12-29T13:55:24;2.53;;;1.77;;
2211;SDS011;48849;48.758;9.158;2022-12-29T13:57:57;1.83;;;1.70;;
2211;SDS011;48849;48.758;9.158;2022-12-29T14:00:29;2.45;;;2.25;;
2211;SDS011;48849;48.758;9.158;2022-12-29T14:03:19;2.40;;;2.20;;
2211;SDS011;48849;48.758;9.158;2022-12-29T14:06:05;2.40;;;2.20;;
2211;SDS011;48849;48.758;9.158;2022-12-29T14:08:39;2.38;;;2.17;;
2211;SDS011;48849;48.758;9.158;2022-12-29T14:11:07;12.73;;;3.10;;
2211;SDS011;48849;48.758;9.158;2022-12-29T14:13:38;2.50;;;2.30;;
2211;SDS011;48849;48.758;9.158;2022-12-29T14:16:09;4.00;;;2.58;;
2211;SDS011;48849;48.758;9.158;2022-12-29T14:18:50;3.42;;;2.40;;
2211;SDS011;48849;48.758;9.158;2022-12-29T14:21:19;3.30;;;2.85;;
2211;SDS011;48849;48.758;9.158;2022-12-29T14:23:52;6.20;;;3.00;;
2211;SDS011;48849;48.758;9.158;2022-12-29T14:26:33;2.95;;;2.20;;
2211;SDS011;48849;48.758;9.158;2022-12-29T14:29:35;2.67;;;2.40;;
2211;SDS011;48849;48.758;9.158;2022-12-29T14:40:50;4.50;;;3.05;;
2211;SDS011;48849;48.758;9.158;2022-12-29T14:43:24;4.07;;;2.92;;
2211;SDS011;48849;48.758;9.158;2022-12-29T14:45:58;4.80;;;3.20;;
2211;SDS011;48849;48.758;9.158;2022-12-29T14:48:32;6.40;;;4.00;;
2211;SDS011;48849;48.758;9.158;2022-12-29T14:51:18;5.55;;;3.28;;
2211;SDS011;48849;48.758;9.158;2022-12-29T14:53:47;3.72;;;3.30;;
2211;SDS011;48849;48.758;9.158;2022-12-29T14:56:16;4.93;;;3.70;;
2211;SDS011;48849;48.758;9.158;2022-12-29T14:58:46;3.97;;;3.47;;
2211;SDS011;48849;48.758;9.158;2022-12-29T15:01:18;5.43;;;3.40;;
2211;SDS011;48849;48.758;9.158;2022-12-29T15:03:49;4.07;;;2.70;;
2211;SDS011;48849;48.758;9.158;2022-12-29T15:06:19;2.55;;;2.35;;
2211;SDS011;48849;48.758;9.158;2022-12-29T15:08:50;2.30;;;2.10;;
2211;SDS011;48849;48.758;9.158;2022-12-29T15:11:20;5.28;;;2.90;;
2211;SDS011;48849;48.758;9.158;2022-12-29T15:13:49;5.60;;;2.55;;
2211;SDS011;48849;48.758;9.158;2022-12-29T15:16:24;3.45;;;2.30;;
2211;SDS011;48849;48.758;9.158;2022-12-29T15:18:52;2.42;;;2.15;;
2211;SDS011;48849;48.758;9.158;2022-12-29T15:21:20;3.83;;;2.80;;
2211;SDS011;48849;48.758;9.158;2022-12-29T15:23:50;5.30;;;2.65;;
2211;SDS011;48849;48.758;9.158;2022-12-29T15:26:18;4.93;;;2.55;;
2211;SDS011;48849;48.758;9.158;2022-12-29T15:28:48;2.95;;;2.58;;
2211;SDS011;48849;48.758;9.158;2022-12-29T15:31:18;2.78;;;2.50;;
2211;SDS011;48849;48.758;9.158;2022-12-29T15:33:48;4.43;;;2.72;;
2211;SDS011;48849;48.758;9.158;2022-12-29T15:36:18;2.70;;;2.50;;
2211;SDS011;48849;48.758;9.158;2022-12-29T15:38:46;4.25;;;2.78;;
2211;SDS011;48849;48.758;9.158;2022-12-29T15:41:18;3.25;;;2.95;;
2211;SDS011;48849;48.758;9.158;2022-12-29T15:43:58;3.65;;;2.80;;
2211;SDS011;48849;48.758;9.158;2022-12-29T15:46:34;3.17;;;2.45;;